sensor_id;sensor_type;location;lat;lon;timestamp;pressure;altitude;pressure_sealevel;temperature;humidity
64844;BME280;51310;52.198;5.422;2024-02-26T00:00:37;99849.66;;;4.86;100.00
64844;BME280;51310;52.198;5.422;2024-02-26T00:03:04;99854.34;;;4.80;100.00
64844;BME280;51310;52.198;5.422;2024-02-26T00:05:30;99863.06;;;4.83;100.00
64844;BME280;51310;52.198;5.422;2024-02-26T00:07:57;99867.53;;;4.82;100.00
64844;BME280;51310;52.198;5.422;2024-02-26T00:10:22;99859.72;;;4.79;100.00
64844;BME280;51310;52.198;5.422;2024-02-26T00:12:49;99850.66;;;4.67;100.00
64844;BME280;51310;52.198;5.422;2024-02-26T00:15:15;99863.47;;;4.75;100.00
64844;BME280;51310;52.198;5.422;2024-02-26T00:17:41;99845.38;;;4.67;100.00
64844;BME280;51310;52.198;5.422;2024-02-26T00:20:07;99867.41;;;4.68;100.00
64844;BME280;51310;52.198;5.422;2024-02-26T00:22:36;99854.53;;;4.62;100.00
64844;BME280;51310;52.198;5.422;2024-02-26T00:25:02;99853.03;;;4.56;100.00
64844;BME280;51310;52.198;5.422;2024-02-26T00:27:28;99854.91;;;4.54;100.00
64844;BME280;51310;52.198;5.422;2024-02-26T00:29:54;99866.88;;;4.61;100.00
64844;BME280;51310;52.198;5.422;2024-02-26T00:32:19;99859.28;;;4.55;100.00
64844;BME280;51310;52.198;5.422;2024-02-26T00:34:45;99862.06;;;4.52;100.00
64844;BME280;51310;52.198;5.422;2024-02-26T00:37:11;99873.50;;;4.52;100.00
64844;BME280;51310;52.198;5.422;2024-02-26T00:39:37;99887.16;;;4.45;100.00
64844;BME280;51310;52.198;5.422;2024-02-26T00:42:03;99864.97;;;4.47;100.00
64844;BME280;51310;52.198;5.422;2024-02-26T00:44:29;99851.81;;;4.46;100.00
64844;BME280;51310;52.198;5.422;2024-02-26T00:46:55;99870.31;;;4.46;100.00
64844;BME280;51310;52.198;5.422;2024-02-26T00:49:21;99863.38;;;4.27;100.00
64844;BME280;51310;52.198;5.422;2024-02-26T00:51:47;99879.53;;;4.38;100.00
64844;BME280;51310;52.198;5.422;2024-02-26T00:54:12;99880.63;;;4.34;100.00
64844;BME280;51310;52.198;5.422;2024-02-26T00:56:38;99880.78;;;4.31;100.00
64844;BME280;51310;52.198;5.422;2024-02-26T00:59:04;99881.41;;;4.36;100.00
64844;BME280;51310;52.198;5.422;2024-02-26T01:01:30;99876.47;;;4.30;100.00
64844;BME280;51310;52.198;5.422;2024-02-26T01:03:56;99877.97;;;4.34;100.00
64844;BME280;51310;52.198;5.422;2024-02-26T01:06:22;99887.41;;;4.23;100.00
64844;BME280;51310;52.198;5.422;2024-02-26T01:08:48;99884.69;;;4.24;100.00
64844;BME280;51310;52.198;5.422;2024-02-26T01:11:14;99881.59;;;4.16;100.00
64844;BME280;51310;52.198;5.422;2024-02-26T01:13:40;99877.31;;;4.13;100.00
64844;BME280;51310;52.198;5.422;2024-02-26T01:16:06;99860.91;;;4.07;100.00
64844;BME280;51310;52.198;5.422;2024-02-26T01:18:31;99871.97;;;4.15;100.00
64844;BME280;51310;52.198;5.422;2024-02-26T01:20:57;99878.16;;;4.14;100.00
64844;BME280;51310;52.198;5.422;2024-02-26T01:23:23;99870.41;;;4.11;100.00
64844;BME280;51310;52.198;5.422;2024-02-26T01:25:49;99875.88;;;4.08;100.00
64844;BME280;51310;52.198;5.422;2024-02-26T01:28:15;99882.13;;;4.05;100.00
64844;BME280;51310;52.198;5.422;2024-02-26T01:30:42;99875.94;;;4.06;100.00
64844;BME280;51310;52.198;5.422;2024-02-26T01:33:08;99878.97;;;3.99;100.00
64844;BME280;51310;52.198;5.422;2024-02-26T01:35:33;99858.28;;;3.89;100.00
64844;BME280;51310;52.198;5.422;2024-02-26T01:37:59;99878.81;;;4.02;100.00
64844;BME280;51310;52.198;5.422;2024-02-26T01:40:28;99873.81;;;3.95;100.00
64844;BME280;51310;52.198;5.422;2024-02-26T01:42:55;99855.63;;;3.89;100.00
64844;BME280;51310;52.198;5.422;2024-02-26T01:45:21;99875.69;;;3.93;100.00
64844;BME280;51310;52.198;5.422;2024-02-26T01:47:53;99853.94;;;3.88;100.00
64844;BME280;51310;52.198;5.422;2024-02-26T01:50:20;99858.69;;;3.82;100.00
64844;BME280;51310;52.198;5.422;2024-02-26T01:52:49;99867.31;;;3.85;100.00
64844;BME280;51310;52.198;5.422;2024-02-26T01:55:18;99866.38;;;3.86;100.00
64844;BME280;51310;52.198;5.422;2024-02-26T01:57:47;99876.94;;;3.86;100.00
64844;BME280;51310;52.198;5.422;2024-02-26T02:00:17;99875.25;;;3.85;100.00
64844;BME280;51310;52.198;5.422;2024-02-26T02:02:44;99880.59;;;3.84;100.00
64844;BME280;51310;52.198;5.422;2024-02-26T02:05:12;99884.03;;;3.86;100.00
64844;BME280;51310;52.198;5.422;2024-02-26T02:07:42;99870.25;;;3.79;100.00
64844;BME280;51310;52.198;5.422;2024-02-26T02:10:09;99887.59;;;3.85;100.00
64844;BME280;51310;52.198;5.422;2024-02-26T02:12:35;99890.16;;;3.86;100.00
64844;BME280;51310;52.198;5.422;2024-02-26T02:15:04;99892.81;;;3.86;100.00
64844;BME280;51310;52.198;5.422;2024-02-26T02:17:31;99887.28;;;3.91;100.00
64844;BME280;51310;52.198;5.422;2024-02-26T02:19:57;99883.78;;;3.90;100.00
64844;BME280;51310;52.198;5.422;2024-02-26T02:22:23;99869.88;;;3.87;100.00
64844;BME280;51310;52.198;5.422;2024-02-26T02:24:52;99888.00;;;3.94;100.00
64844;BME280;51310;52.198;5.422;2024-02-26T02:27:19;99877.97;;;3.84;100.00
64844;BME280;51310;52.198;5.422;2024-02-26T02:29:46;99898.56;;;3.94;100.00
64844;BME280;51310;52.198;5.422;2024-02-26T02:32:15;99905.41;;;3.99;100.00
64844;BME280;51310;52.198;5.422;2024-02-26T02:34:42;99899.97;;;4.02;100.00
64844;BME280;51310;52.198;5.422;2024-02-26T02:37:08;99892.19;;;3.99;100.00
64844;BME280;51310;52.198;5.422;2024-02-26T02:39:34;99895.59;;;4.01;100.00
64844;BME280;51310;52.198;5.422;2024-02-26T02:42:00;99902.59;;;4.02;100.00
64844;BME280;51310;52.198;5.422;2024-02-26T02:44:26;99891.41;;;3.96;100.00
64844;BME280;51310;52.198;5.422;2024-02-26T02:46:52;99908.75;;;4.02;100.00
64844;BME280;51310;52.198;5.422;2024-02-26T02:49:19;99895.16;;;3.92;100.00
64844;BME280;51310;52.198;5.422;2024-02-26T02:51:44;99914.09;;;4.01;100.00
64844;BME280;51310;52.198;5.422;2024-02-26T02:54:10;99916.66;;;4.02;100.00
64844;BME280;51310;52.198;5.422;2024-02-26T02:56:36;99903.84;;;3.94;100.00
64844;BME280;51310;52.198;5.422;2024-02-26T02:59:02;99919.25;;;4.04;100.00
64844;BME280;51310;52.198;5.422;2024-02-26T03:01:28;99933.09;;;4.09;100.00
64844;BME280;51310;52.198;5.422;2024-02-26T03:03:54;99912.56;;;3.96;100.00
64844;BME280;51310;52.198;5.422;2024-02-26T03:06:20;99927.97;;;4.06;100.00
64844;BME280;51310;52.198;5.422;2024-02-26T03:08:46;99911.56;;;3.99;100.00
64844;BME280;51310;52.198;5.422;2024-02-26T03:11:15;99933.09;;;4.09;100.00
64844;BME280;51310;52.198;5.422;2024-02-26T03:13:41;99945.38;;;4.10;100.00
64844;BME280;51310;52.198;5.422;2024-02-26T03:16:08;99947.09;;;4.11;100.00
64844;BME280;51310;52.198;5.422;2024-02-26T03:18:34;99947.09;;;4.11;100.00
64844;BME280;51310;52.198;5.422;2024-02-26T03:21:00;99948.88;;;4.10;100.00
64844;BME280;51310;52.198;5.422;2024-02-26T03:23:25;99945.28;;;4.11;100.00
64844;BME280;51310;52.198;5.422;2024-02-26T03:25:51;99952.19;;;4.14;100.00
64844;BME280;51310;52.198;5.422;2024-02-26T03:28:17;99959.34;;;4.12;100.00
64844;BME280;51310;52.198;5.422;2024-02-26T03:30:43;99945.06;;;4.16;100.00
64844;BME280;51310;52.198;5.422;2024-02-26T03:33:09;99952.38;;;4.11;100.00
64844;BME280;51310;52.198;5.422;2024-02-26T03:35:35;99953.09;;;4.14;100.00
64844;BME280;51310;52.198;5.422;2024-02-26T03:38:01;99948.94;;;4.09;100.00
64844;BME280;51310;52.198;5.422;2024-02-26T03:40:28;99963.50;;;4.17;100.00
64844;BME280;51310;52.198;5.422;2024-02-26T03:42:54;99965.44;;;4.14;100.00
64844;BME280;51310;52.198;5.422;2024-02-26T03:45:19;99976.66;;;4.19;100.00
64844;BME280;51310;52.198;5.422;2024-02-26T03:47:45;99981.78;;;4.22;100.00
64844;BME280;51310;52.198;5.422;2024-02-26T03:50:11;99969.78;;;4.15;100.00
64844;BME280;51310;52.198;5.422;2024-02-26T03:52:37;99963.72;;;4.13;100.00
64844;BME280;51310;52.198;5.422;2024-02-26T03:55:03;99978.28;;;4.22;100.00
64844;BME280;51310;52.198;5.422;2024-02-26T03:57:29;99966.44;;;4.11;100.00
64844;BME280;51310;52.198;5.422;2024-02-26T03:59:56;99969.94;;;4.12;100.00
64844;BME280;51310;52.198;5.422;2024-02-26T04:02:22;99972.56;;;4.12;100.00
64844;BME280;51310;52.198;5.422;2024-02-26T04:04:49;99985.50;;;4.18;100.00
64844;BME280;51310;52.198;5.422;2024-02-26T04:07:15;99973.53;;;4.11;100.00
64844;BME280;51310;52.198;5.422;2024-02-26T04:09:40;99972.69;;;4.10;100.00
64844;BME280;51310;52.198;5.422;2024-02-26T04:12:07;99991.81;;;4.15;100.00
64844;BME280;51310;52.198;5.422;2024-02-26T04:14:33;99991.88;;;4.14;100.00
64844;BME280;51310;52.198;5.422;2024-02-26T04:16:59;100003.16;;;4.17;100.00
64844;BME280;51310;52.198;5.422;2024-02-26T04:19:24;99997.03;;;4.17;100.00
64844;BME280;51310;52.198;5.422;2024-02-26T04:21:50;99988.59;;;4.09;100.00
64844;BME280;51310;52.198;5.422;2024-02-26T04:24:16;99998.88;;;4.15;100.00
64844;BME280;51310;52.198;5.422;2024-02-26T04:26:42;100004.25;;;4.13;100.00
64844;BME280;51310;52.198;5.422;2024-02-26T04:29:08;99992.97;;;4.10;100.00
64844;BME280;51310;52.198;5.422;2024-02-26T04:31:34;100006.81;;;4.15;100.00
64844;BME280;51310;52.198;5.422;2024-02-26T04:34:00;100008.69;;;4.13;100.00
64844;BME280;51310;52.198;5.422;2024-02-26T04:36:25;100009.75;;;4.09;100.00
64844;BME280;51310;52.198;5.422;2024-02-26T04:38:51;100002.84;;;4.06;100.00
64844;BME280;51310;52.198;5.422;2024-02-26T04:41:20;100015.91;;;4.09;100.00
64844;BME280;51310;52.198;5.422;2024-02-26T04:43:45;100002.00;;;4.06;100.00
64844;BME280;51310;52.198;5.422;2024-02-26T04:46:11;100028.66;;;4.18;100.00
64844;BME280;51310;52.198;5.422;2024-02-26T04:48:37;100010.53;;;4.11;100.00
64844;BME280;51310;52.198;5.422;2024-02-26T04:51:04;100025.09;;;4.20;100.00
64844;BME280;51310;52.198;5.422;2024-02-26T04:53:30;100016.22;;;4.21;100.00
64844;BME280;51310;52.198;5.422;2024-02-26T04:55:56;100002.31;;;4.17;100.00
64844;BME280;51310;52.198;5.422;2024-02-26T04:58:22;100016.94;;;4.24;100.00
64844;BME280;51310;52.198;5.422;2024-02-26T05:00:48;100028.44;;;4.23;100.00
64844;BME280;51310;52.198;5.422;2024-02-26T05:03:14;100021.50;;;4.21;100.00
64844;BME280;51310;52.198;5.422;2024-02-26T05:05:43;100024.03;;;4.24;100.00
64844;BME280;51310;52.198;5.422;2024-02-26T05:08:09;100016.69;;;4.11;100.00
64844;BME280;51310;52.198;5.422;2024-02-26T05:10:35;100037.69;;;4.14;100.00
64844;BME280;51310;52.198;5.422;2024-02-26T05:13:05;100020.03;;;4.15;100.00
64844;BME280;51310;52.198;5.422;2024-02-26T05:15:31;100043.44;;;4.23;100.00
64844;BME280;51310;52.198;5.422;2024-02-26T05:17:57;100031.63;;;4.12;100.00
64844;BME280;51310;52.198;5.422;2024-02-26T05:20:23;100043.53;;;4.21;100.00
64844;BME280;51310;52.198;5.422;2024-02-26T05:22:49;100015.81;;;4.11;100.00
64844;BME280;51310;52.198;5.422;2024-02-26T05:25:16;100024.53;;;4.13;100.00
64844;BME280;51310;52.198;5.422;2024-02-26T05:27:43;100029.84;;;4.13;100.00
64844;BME280;51310;52.198;5.422;2024-02-26T05:30:11;100065.47;;;4.23;100.00
64844;BME280;51310;52.198;5.422;2024-02-26T05:32:37;100061.03;;;4.24;100.00
64844;BME280;51310;52.198;5.422;2024-02-26T05:35:04;100046.47;;;4.15;100.00
64844;BME280;51310;52.198;5.422;2024-02-26T05:37:30;100063.59;;;4.25;100.00
64844;BME280;51310;52.198;5.422;2024-02-26T05:39:56;100059.25;;;4.24;100.00
64844;BME280;51310;52.198;5.422;2024-02-26T05:42:22;100056.44;;;4.10;100.00
64844;BME280;51310;52.198;5.422;2024-02-26T05:44:48;100052.84;;;4.11;100.00
64844;BME280;51310;52.198;5.422;2024-02-26T05:47:14;100073.78;;;4.15;100.00
64844;BME280;51310;52.198;5.422;2024-02-26T05:49:40;100073.72;;;4.17;100.00
64844;BME280;51310;52.198;5.422;2024-02-26T05:52:06;100084.28;;;4.17;100.00
64844;BME280;51310;52.198;5.422;2024-02-26T05:54:32;100075.41;;;4.18;100.00
64844;BME280;51310;52.198;5.422;2024-02-26T05:56:58;100087.06;;;4.14;100.00
64844;BME280;51310;52.198;5.422;2024-02-26T05:59:24;100080.56;;;4.21;100.00
64844;BME280;51310;52.198;5.422;2024-02-26T06:01:49;100071.19;;;4.14;100.00
64844;BME280;51310;52.198;5.422;2024-02-26T06:04:15;100086.56;;;4.25;100.00
64844;BME280;51310;52.198;5.422;2024-02-26T06:06:44;100092.69;;;4.25;100.00
64844;BME280;51310;52.198;5.422;2024-02-26T06:09:11;100089.97;;;4.27;100.00
64844;BME280;51310;52.198;5.422;2024-02-26T06:11:38;100103.13;;;4.28;100.00
64844;BME280;51310;52.198;5.422;2024-02-26T06:14:04;100090.38;;;4.19;100.00
64844;BME280;51310;52.198;5.422;2024-02-26T06:16:30;100085.13;;;4.17;100.00
64844;BME280;51310;52.198;5.422;2024-02-26T06:18:56;100071.06;;;4.17;100.00
64844;BME280;51310;52.198;5.422;2024-02-26T06:21:22;100095.09;;;4.30;100.00
64844;BME280;51310;52.198;5.422;2024-02-26T06:23:48;100095.88;;;4.32;100.00
64844;BME280;51310;52.198;5.422;2024-02-26T06:26:16;100113.56;;;4.31;100.00
64844;BME280;51310;52.198;5.422;2024-02-26T06:28:42;100107.78;;;4.23;100.00
64844;BME280;51310;52.198;5.422;2024-02-26T06:31:08;100124.94;;;4.33;100.00
64844;BME280;51310;52.198;5.422;2024-02-26T06:33:34;100128.63;;;4.29;100.00
64844;BME280;51310;52.198;5.422;2024-02-26T06:36:00;100136.44;;;4.32;100.00
64844;BME280;51310;52.198;5.422;2024-02-26T06:38:26;100133.16;;;4.27;100.00
64844;BME280;51310;52.198;5.422;2024-02-26T06:40:52;100108.00;;;4.18;100.00
64844;BME280;51310;52.198;5.422;2024-02-26T06:43:18;100140.44;;;4.22;100.00
64844;BME280;51310;52.198;5.422;2024-02-26T06:45:44;100133.59;;;4.18;100.00
64844;BME280;51310;52.198;5.422;2024-02-26T06:48:09;100135.53;;;4.14;100.00
64844;BME280;51310;52.198;5.422;2024-02-26T06:50:35;100126.47;;;4.01;100.00
64844;BME280;51310;52.198;5.422;2024-02-26T06:53:01;100137.13;;;4.00;100.00
64844;BME280;51310;52.198;5.422;2024-02-26T06:55:27;100157.03;;;4.07;100.00
64844;BME280;51310;52.198;5.422;2024-02-26T06:57:53;100159.06;;;4.02;100.00
64844;BME280;51310;52.198;5.422;2024-02-26T07:00:19;100159.06;;;4.02;100.00
64844;BME280;51310;52.198;5.422;2024-02-26T07:02:45;100149.03;;;3.89;100.00
64844;BME280;51310;52.198;5.422;2024-02-26T07:05:11;100145.53;;;3.89;100.00
64844;BME280;51310;52.198;5.422;2024-02-26T07:07:37;100161.06;;;3.96;100.00
64844;BME280;51310;52.198;5.422;2024-02-26T07:10:04;100161.28;;;3.92;100.00
64844;BME280;51310;52.198;5.422;2024-02-26T07:12:31;100167.31;;;3.94;100.00
64844;BME280;51310;52.198;5.422;2024-02-26T07:14:57;100170.97;;;3.91;100.00
64844;BME280;51310;52.198;5.422;2024-02-26T07:17:24;100181.41;;;3.94;100.00
64844;BME280;51310;52.198;5.422;2024-02-26T07:19:50;100175.34;;;3.92;100.00
64844;BME280;51310;52.198;5.422;2024-02-26T07:22:15;100184.06;;;3.94;100.00
64844;BME280;51310;52.198;5.422;2024-02-26T07:24:41;100182.34;;;3.93;100.00
64844;BME280;51310;52.198;5.422;2024-02-26T07:27:07;100197.91;;;4.00;100.00
64844;BME280;51310;52.198;5.422;2024-02-26T07:29:33;100191.78;;;3.99;100.00
64844;BME280;51310;52.198;5.422;2024-02-26T07:31:59;100196.00;;;4.03;100.00
64844;BME280;51310;52.198;5.422;2024-02-26T07:34:25;100205.63;;;4.04;100.00
64844;BME280;51310;52.198;5.422;2024-02-26T07:36:57;100208.22;;;4.06;100.00
64844;BME280;51310;52.198;5.422;2024-02-26T07:39:23;100204.56;;;4.08;100.00
64844;BME280;51310;52.198;5.422;2024-02-26T07:41:49;100196.00;;;4.03;100.00
64844;BME280;51310;52.198;5.422;2024-02-26T07:44:17;100190.78;;;4.02;100.00
64844;BME280;51310;52.198;5.422;2024-02-26T07:46:44;100192.69;;;3.98;100.00
64844;BME280;51310;52.198;5.422;2024-02-26T07:49:10;100176.63;;;4.03;100.00
64844;BME280;51310;52.198;5.422;2024-02-26T07:51:36;100204.56;;;4.08;100.00
64844;BME280;51310;52.198;5.422;2024-02-26T07:54:02;100198.34;;;4.09;100.00
64844;BME280;51310;52.198;5.422;2024-02-26T07:56:28;100215.28;;;4.05;100.00
64844;BME280;51310;52.198;5.422;2024-02-26T07:58:54;100202.34;;;3.99;100.00
64844;BME280;51310;52.198;5.422;2024-02-26T08:01:19;100220.00;;;3.99;100.00
64844;BME280;51310;52.198;5.422;2024-02-26T08:03:45;100228.59;;;4.04;100.00
64844;BME280;51310;52.198;5.422;2024-02-26T08:06:11;100231.06;;;4.07;100.00
64844;BME280;51310;52.198;5.422;2024-02-26T08:08:37;100238.22;;;4.05;100.00
64844;BME280;51310;52.198;5.422;2024-02-26T08:11:03;100243.38;;;4.08;100.00
64844;BME280;51310;52.198;5.422;2024-02-26T08:13:29;100242.38;;;4.10;100.00
64844;BME280;51310;52.198;5.422;2024-02-26T08:15:55;100240.81;;;4.06;100.00
64844;BME280;51310;52.198;5.422;2024-02-26T08:18:21;100250.31;;;4.10;100.00
64844;BME280;51310;52.198;5.422;2024-02-26T08:20:47;100239.94;;;4.06;100.00
64844;BME280;51310;52.198;5.422;2024-02-26T08:23:14;100248.69;;;4.08;100.00
64844;BME280;51310;52.198;5.422;2024-02-26T08:25:40;100242.66;;;4.04;100.00
64844;BME280;51310;52.198;5.422;2024-02-26T08:28:06;100245.88;;;4.11;100.00
64844;BME280;51310;52.198;5.422;2024-02-26T08:30:32;100259.91;;;4.13;100.00
64844;BME280;51310;52.198;5.422;2024-02-26T08:32:59;100248.38;;;4.14;100.00
64844;BME280;51310;52.198;5.422;2024-02-26T08:35:25;100236.56;;;4.02;100.00
64844;BME280;51310;52.198;5.422;2024-02-26T08:37:51;100259.91;;;4.13;100.00
64844;BME280;51310;52.198;5.422;2024-02-26T08:40:17;100273.75;;;4.18;100.00
64844;BME280;51310;52.198;5.422;2024-02-26T08:42:43;100271.97;;;4.18;100.00
64844;BME280;51310;52.198;5.422;2024-02-26T08:45:09;100264.75;;;4.22;100.00
64844;BME280;51310;52.198;5.422;2024-02-26T08:47:35;100277.97;;;4.22;100.00
64844;BME280;51310;52.198;5.422;2024-02-26T08:50:01;100261.69;;;4.12;100.00
64844;BME280;51310;52.198;5.422;2024-02-26T08:52:27;100265.97;;;4.15;100.00
64844;BME280;51310;52.198;5.422;2024-02-26T08:54:53;100283.34;;;4.21;100.00
64844;BME280;51310;52.198;5.422;2024-02-26T08:57:19;100293.06;;;4.20;100.00
64844;BME280;51310;52.198;5.422;2024-02-26T08:59:45;100285.19;;;4.18;100.00
64844;BME280;51310;52.198;5.422;2024-02-26T09:02:10;100306.28;;;4.20;100.00
64844;BME280;51310;52.198;5.422;2024-02-26T09:04:36;100298.41;;;4.18;100.00
64844;BME280;51310;52.198;5.422;2024-02-26T09:07:03;100300.16;;;4.20;100.00
64844;BME280;51310;52.198;5.422;2024-02-26T09:09:28;100300.16;;;4.20;100.00
64844;BME280;51310;52.198;5.422;2024-02-26T09:11:54;100301.16;;;4.17;100.00
64844;BME280;51310;52.198;5.422;2024-02-26T09:14:21;100299.78;;;4.08;100.00
64844;BME280;51310;52.198;5.422;2024-02-26T09:16:47;100290.84;;;4.11;100.00
64844;BME280;51310;52.198;5.422;2024-02-26T09:19:17;100330.88;;;4.22;100.00
64844;BME280;51310;52.198;5.422;2024-02-26T09:21:44;100289.13;;;4.10;100.00
64844;BME280;51310;52.198;5.422;2024-02-26T09:24:12;100329.03;;;4.24;100.00
64844;BME280;51310;52.198;5.422;2024-02-26T09:26:38;100333.66;;;4.19;100.00
64844;BME280;51310;52.198;5.422;2024-02-26T09:29:04;100322.31;;;4.17;100.00
64844;BME280;51310;52.198;5.422;2024-02-26T09:31:31;100329.19;;;4.21;100.00
64844;BME280;51310;52.198;5.422;2024-02-26T09:33:57;100339.38;;;4.10;100.00
64844;BME280;51310;52.198;5.422;2024-02-26T09:36:23;100335.59;;;4.15;100.00
64844;BME280;51310;52.198;5.422;2024-02-26T09:38:49;100337.56;;;4.10;100.00
64844;BME280;51310;52.198;5.422;2024-02-26T09:41:15;100363.03;;;4.13;100.00
64844;BME280;51310;52.198;5.422;2024-02-26T09:43:45;100348.22;;;4.09;100.00
64844;BME280;51310;52.198;5.422;2024-02-26T09:46:13;100354.16;;;4.14;100.00
64844;BME280;51310;52.198;5.422;2024-02-26T09:48:42;100343.88;;;4.08;100.00
64844;BME280;51310;52.198;5.422;2024-02-26T09:51:11;100351.09;;;4.23;100.00
64844;BME280;51310;52.198;5.422;2024-02-26T09:53:38;100358.13;;;4.24;100.00
64844;BME280;51310;52.198;5.422;2024-02-26T09:56:08;100351.78;;;4.28;100.00
64844;BME280;51310;52.198;5.422;2024-02-26T09:58:35;100357.19;;;4.25;100.00
64844;BME280;51310;52.198;5.422;2024-02-26T10:01:02;100357.38;;;4.21;100.00
64844;BME280;51310;52.198;5.422;2024-02-26T10:03:41;100378.13;;;4.30;100.00
64844;BME280;51310;52.198;5.422;2024-02-26T10:06:10;100358.81;;;4.28;100.00
64844;BME280;51310;52.198;5.422;2024-02-26T10:08:37;100370.78;;;4.36;100.00
64844;BME280;51310;52.198;5.422;2024-02-26T10:11:13;100390.09;;;4.38;100.00
64844;BME280;51310;52.198;5.422;2024-02-26T10:13:40;100387.59;;;4.35;100.00
64844;BME280;51310;52.198;5.422;2024-02-26T10:16:07;100381.38;;;4.36;100.00
64844;BME280;51310;52.198;5.422;2024-02-26T10:18:50;100383.09;;;4.37;100.00
64844;BME280;51310;52.198;5.422;2024-02-26T10:21:20;100396.72;;;4.49;100.00
64844;BME280;51310;52.198;5.422;2024-02-26T10:23:47;100400.63;;;4.40;100.00
64844;BME280;51310;52.198;5.422;2024-02-26T10:26:17;100372.09;;;4.47;100.00
64844;BME280;51310;52.198;5.422;2024-02-26T10:28:46;100411.94;;;4.44;100.00
64844;BME280;51310;52.198;5.422;2024-02-26T10:31:14;100413.59;;;4.46;100.00
64844;BME280;51310;52.198;5.422;2024-02-26T10:33:42;100407.28;;;4.49;100.00
64844;BME280;51310;52.198;5.422;2024-02-26T10:36:08;100414.19;;;4.53;100.00
64844;BME280;51310;52.198;5.422;2024-02-26T10:38:36;100402.06;;;4.47;100.00
64844;BME280;51310;52.198;5.422;2024-02-26T10:41:23;100403.72;;;4.50;100.00
64844;BME280;51310;52.198;5.422;2024-02-26T10:43:49;100411.53;;;4.53;100.00
64844;BME280;51310;52.198;5.422;2024-02-26T10:46:16;100436.00;;;4.58;100.00
64844;BME280;51310;52.198;5.422;2024-02-26T10:48:50;100436.00;;;4.58;100.00
64844;BME280;51310;52.198;5.422;2024-02-26T10:51:28;100433.34;;;4.58;100.00
64844;BME280;51310;52.198;5.422;2024-02-26T10:53:58;100447.38;;;4.60;100.00
64844;BME280;51310;52.198;5.422;2024-02-26T10:56:28;100453.50;;;4.61;100.00
64844;BME280;51310;52.198;5.422;2024-02-26T10:58:55;100446.53;;;4.59;100.00
64844;BME280;51310;52.198;5.422;2024-02-26T11:01:24;100462.25;;;4.63;100.00
64844;BME280;51310;52.198;5.422;2024-02-26T11:03:52;100438.78;;;4.55;100.00
64844;BME280;51310;52.198;5.422;2024-02-26T11:06:20;100474.50;;;4.65;100.00
64844;BME280;51310;52.198;5.422;2024-02-26T11:08:50;100458.59;;;4.65;100.00
64844;BME280;51310;52.198;5.422;2024-02-26T11:11:20;100466.09;;;4.55;100.00
64844;BME280;51310;52.198;5.422;2024-02-26T11:13:48;100476.47;;;4.60;100.00
64844;BME280;51310;52.198;5.422;2024-02-26T11:16:21;100468.66;;;4.57;100.00
64844;BME280;51310;52.198;5.422;2024-02-26T11:18:48;100463.47;;;4.55;100.00
64844;BME280;51310;52.198;5.422;2024-02-26T11:21:19;100485.72;;;4.70;100.00
64844;BME280;51310;52.198;5.422;2024-02-26T11:23:46;100464.47;;;4.53;100.00
64844;BME280;51310;52.198;5.422;2024-02-26T11:26:15;100470.25;;;4.61;100.00
64844;BME280;51310;52.198;5.422;2024-02-26T11:28:43;100465.09;;;4.58;100.00
64844;BME280;51310;52.198;5.422;2024-02-26T11:31:11;100473.28;;;4.72;100.00
64844;BME280;51310;52.198;5.422;2024-02-26T11:33:38;100481.31;;;4.71;100.00
64844;BME280;51310;52.198;5.422;2024-02-26T11:36:12;100493.75;;;4.69;100.00
64844;BME280;51310;52.198;5.422;2024-02-26T11:38:39;100497.78;;;4.77;100.00
64844;BME280;51310;52.198;5.422;2024-02-26T11:41:06;100488.09;;;4.76;100.00
64844;BME280;51310;52.198;5.422;2024-02-26T11:43:58;100497.63;;;4.80;100.00
64844;BME280;51310;52.198;5.422;2024-02-26T11:46:31;100510.59;;;4.87;100.00
64844;BME280;51310;52.198;5.422;2024-02-26T11:51:55;100492.97;;;4.86;100.00
64844;BME280;51310;52.198;5.422;2024-02-26T11:54:52;100511.78;;;4.79;100.00
64844;BME280;51310;52.198;5.422;2024-02-26T11:57:38;100512.53;;;4.83;100.00
64844;BME280;51310;52.198;5.422;2024-02-26T12:00:13;100516.09;;;4.82;100.00
64844;BME280;51310;52.198;5.422;2024-02-26T12:02:51;100536.41;;;4.82;100.00
64844;BME280;51310;52.198;5.422;2024-02-26T12:05:24;100525.09;;;4.78;100.00
64844;BME280;51310;52.198;5.422;2024-02-26T12:08:00;100529.41;;;4.80;100.00
64844;BME280;51310;52.198;5.422;2024-02-26T12:10:37;100524.91;;;4.83;100.00
64844;BME280;51310;52.198;5.422;2024-02-26T12:13:17;100514.16;;;4.86;100.00
64844;BME280;51310;52.198;5.422;2024-02-26T12:15:57;100534.09;;;4.94;100.00
64844;BME280;51310;52.198;5.422;2024-02-26T12:18:24;100539.19;;;4.99;100.00
64844;BME280;51310;52.198;5.422;2024-02-26T12:21:01;100538.06;;;5.05;100.00
64844;BME280;51310;52.198;5.422;2024-02-26T12:23:28;100544.06;;;5.08;100.00
64844;BME280;51310;52.198;5.422;2024-02-26T12:25:58;100552.78;;;5.10;100.00
64844;BME280;51310;52.198;5.422;2024-02-26T12:28:31;100555.66;;;5.06;100.00
64844;BME280;51310;52.198;5.422;2024-02-26T12:30:58;100564.97;;;5.14;100.00
64844;BME280;51310;52.198;5.422;2024-02-26T12:33:26;100534.19;;;5.12;100.00
64844;BME280;51310;52.198;5.422;2024-02-26T12:35:53;100561.13;;;5.21;100.00
64844;BME280;51310;52.198;5.422;2024-02-26T12:38:20;100558.53;;;5.20;100.00
64844;BME280;51310;52.198;5.422;2024-02-26T12:40:46;100523.50;;;5.13;100.00
64844;BME280;51310;52.198;5.422;2024-02-26T12:43:14;100520.69;;;4.97;100.00
64844;BME280;51310;52.198;5.422;2024-02-26T12:45:41;100561.53;;;5.12;100.00
64844;BME280;51310;52.198;5.422;2024-02-26T12:48:08;100581.66;;;5.16;100.00
64844;BME280;51310;52.198;5.422;2024-02-26T12:50:34;100579.66;;;5.21;100.00
64844;BME280;51310;52.198;5.422;2024-02-26T12:53:00;100567.69;;;5.13;100.00
64844;BME280;51310;52.198;5.422;2024-02-26T12:55:27;100561.47;;;5.14;100.00